DAUZ

In Aménas Airport

Aménas, Algeria
METAR DAUZ 240700Z 19011KT 5000 SCT040 SCT080 34/05 Q1015
Observed Flight Rules
May-24 @ 07:00 UTC (an hour ago) Marginal Visual Flight Rules
Wind Visibility Clouds
190° at 11 knots 5,005 meters
  • Scattered at 4,000' AGL
  • Scattered at 8,000' AGL
Temperatures Readings
Current 34°C / 93°F
Dewpoint 5°C / 41°F
Humidity 16%
Altimeter 29.97" Hg
Pressure 1015 hPa
Elevation 562
METAR DAUZ 240700Z 19011KT 5000 SCT040 SCT080 34/05 Q1015
Observed Flight Rules
May-24 @ 07:00 UTC
(an hour ago)
MVFR
Wind Visibility
190° at 11 knots 5,005 meters
Clouds
  • Scattered at 4,000' AGL
  • Scattered at 8,000' AGL
Temperature Dewpoint
34°C / 93°F 5°C / 41°F
Humidity Altimeter Pressure
16% 29.97" Hg 1015 hPa